Cuijk, Netherlands
Current Conditions -  °F | °C
As of 1:59 AM on Wednesday 28 Jan 2015 (Local Time) from EHVK Reporting Station
Haze Haze  
Wind Chill: 32°   Ceiling: 3100
Heat Index: 39°   Visibility: 4mi
Dew Point: 37°   Wind: 13mph
Humidity: 93%   Direction: 220°SW
Pressure: 30.09"   Gusts: NA
Location:  51.73°N, 5.88°E
Report Text: EHVK 280059Z AUTO 22011KT 6000 BR FEW006 SCT027 OVC031 04/03 Q1019 WHT
Loading
Personal Weather Stations






























Interactive Weather Map New forecast layout! Learn more

10-Day Weather Forecast

Advertisements
Track Severe Weather on mobile